x

Buoy E01 - Central Maine Shelf (44032) Wave Buoy

7:04 - Mon 29th Aug 2016 All times are EDT. -4 hours from GMT.

  • Sig Wave height 4.6ft
  • Peak Period 6s
  • Wind
    16mph, 18mph gusts
  • Sea Temp 62°f
  • Air Temp 65°f
  • Sea Pressure 1015.2mb
  • Buoy E01 - Central Maine Shelf
  • Buoy E01 - Central Maine Shelf

More Historic Weather Station data

Upgrade to MSW Pro to gain access to the past 30 days of data for over 8000 Wavebouys and Weather Stations around the globe.

Join Pro

Comparision Forecast

View Surf forecast
   
lun. 08/29 7:04 4.5ft 6s 16 18 mph 1015.2mb 62f 65f
6:04 5ft 6s 16 18 mph 1015.4mb 62f 65f
5:04 4.5ft 5s 18 20 mph 1015.8mb 62f 65f
4:04 5ft 5s 20 25 mph 1016.5mb 62f 65f
3:04 3.5ft 5s 20 22 mph 1017.2mb 62f 65f
2:04 3.5ft 5s 20 22 mph 1017.9mb 62f 66f
1:04 3ft 5s 16 20 mph 1018.5mb 63f 65f
12:04 2.5ft 4s 16 18 mph 1019mb 63f 65f
dim. 08/28 11:04 2ft 4s 13 16 mph 1019.8mb 63f 65f
10:04 2ft 3s 9 11 mph 1020.4mb 63f 65f
9:04 1.3ft 3s 9 11 mph 1020.9mb 63f 65f
8:04 1.6ft 6s 11 13 mph 1020.9mb 63f 65f
7:04 1.6ft 8s 13 16 mph 1020.9mb 63f 65f
6:04 1.6ft 8s 11
mph
1021.5mb 63f 65f
5:04 1.3ft 8s 9
mph
1022.5mb 63f 65f
4:04 1.3ft 8s 9 11 mph 1023.1mb 63f 65f
3:04 1.3ft 8s 9 11 mph 1023.7mb 63f 65f
2:04 1.3ft 8s 7 9 mph 1024.3mb 64f 65f
1:04 1.3ft 8s 9
mph
1024.7mb 63f 64f
12:04 1.3ft 11s 9
mph
1025.3mb 63f 64f
11:04 1.3ft 8s 9
mph
1025.8mb 63f 64f
10:04 1.3ft 11s 7 9 mph 1025.7mb 62f 64f
9:04 1.3ft 11s 7 9 mph 1025.5mb 62f 64f
8:04 1.6ft 11s 4
mph
1025.5mb 62f 63f
7:04 1.6ft 8s 7
mph
1025.8mb 62f 63f
6:04 1.3ft 8s 4 7 mph 1025.1mb 62f 62f
5:04 1.3ft 8s 2
mph
1024.9mb 62f 63f
4:04 1ft 8s 2 4 mph 1024.5mb 62f 63f
3:04 2ft 8s 2
mph
1024.7mb 61f 63f
2:04 1.3ft 11s 2 4 mph 1024.9mb 62f 64f
1:04 1.3ft 11s 4
mph
1024.9mb 63f 65f
12:04 1.3ft 8s 2
mph
1024.6mb 63f 65f
sam. 08/27 11:04 1ft 8s 4
mph
1024.3mb 63f 65f
10:04 1ft 11s 4 7 mph 1023.8mb 63f 65f
9:04 1.3ft 11s  -  mph 1023.4mb 63f 65f
8:04 1.3ft 6s  -  2 mph 1022.6mb 64f 66f
7:04 1.3ft 6s 4
mph
1022mb 64f 68f
6:04 1.3ft 6s 4 7 mph 1021.7mb 64f 68f
5:04 1ft 8s 4 7 mph 1021.6mb 64f 67f
4:04 1.3ft 8s 4
mph
1021.4mb 64f 68f
3:04 1.3ft 8s 4 7 mph 1021.4mb 65f 68f
2:04 1.3ft 8s 4
mph
1021.2mb 66f 70f
1:04 1.3ft 8s 4
mph
1021.2mb 63f 70f
12:04 1ft 8s 4
mph
1021.4mb 63f 68f
11:04 1ft 5s 7
mph
1021.5mb 63f 67f
10:04 1.3ft 8s 9
mph
1021.2mb 63f 66f
9:04 1.3ft 8s 7
mph
1020.9mb 62f 65f
8:04 1.3ft 8s 7 9 mph 1020.3mb 62f 65f
7:04 1.3ft 6s 7
mph
1019.6mb 62f 64f
6:04 1.6ft 8s 7
mph
1018.7mb 62f 64f
5:04 2ft 5s 2 4 mph 1018.2mb 62f 64f
4:04 2ft 5s 7 9 mph 1017.7mb 62f 64f
3:04 1.6ft 8s 9 11 mph 1017.3mb 62f 66f
2:04 2ft 5s 9 11 mph 1016.9mb 62f 66f
1:04 1.6ft 8s 4 7 mph 1016.6mb 63f 65f
12:04 1.6ft 5s 7
mph
1016.2mb 63f 65f
ven. 08/26 11:04 2ft 5s 7
mph
1015.4mb 63f 65f
10:04 2ft 5s 7
mph
1014.8mb 63f 65f
9:04 2ft 5s 9 13 mph 1014.1mb 63f 66f
8:04 2ft 5s 11 13 mph 1013mb 64f 66f
7:04 2.5ft 5s 9 11 mph 1012.4mb 63f 65f
6:04 2.5ft 5s 9
mph
1012.2mb 62f 66f
5:04 2.5ft 5s 11
mph
1012.3mb 62f 66f
4:04 2.5ft 8s 9 11 mph 1012.5mb 62f 66f
3:04 3ft 5s 9 11 mph 1012.5mb 63f 65f
2:04 3ft 5s 7 9 mph 1012.5mb 62f 66f
1:04 3ft 5s 7
mph
1012.5mb 62f 65f
12:04 3ft 5s 16 18 mph 1012.8mb 62f 66f
11:04 3.5ft 5s 9 11 mph 1013.2mb 63f 65f
10:04 3ft 5s 9
mph
1013.4mb 62f 65f
9:04 3.5ft 6s 9
mph
1013.3mb 62f 65f
8:04 3.5ft 5s 9 11 mph 1012.9mb 62f 65f
7:04 3.5ft 5s 11 13 mph 1012.8mb 62f 65f
6:04 3.5ft 6s 13
mph
1012.9mb 62f 65f
5:04 4.5ft 6s 13 16 mph 1012.5mb 62f 65f
4:04 4.5ft 6s 13 16 mph 1012.5mb 62f 65f
3:04 4.5ft 5s 16 18 mph 1012.7mb 62f 65f
2:04 4.5ft 6s 16 18 mph 1013.1mb 61f 65f
1:04 5ft 6s 16 18 mph 1013.3mb 61f 65f
12:04 5ft 6s 18 20 mph 1013.2mb 61f 66f
jeu. 08/25 11:04 5ft 6s 16 18 mph 1013.8mb 61f 65f
10:04 4.5ft 6s 16 20 mph 1014mb 62f 65f
9:04 4.5ft 5s 16 18 mph 1013.9mb 61f 66f
8:04 4ft 5s 16 18 mph 1013.8mb 61f 66f
7:04 3.5ft 5s 18 20 mph 1013.4mb 62f 66f
6:04 4.5ft 5s 18 20 mph 1013.5mb 62f 66f
5:04 5ft 6s 18
mph
1013.6mb 61f 66f
4:04 4.5ft 5s 18 20 mph 1014mb 61f 66f
3:04 4.5ft 5s 20 22 mph 1014.5mb 61f 66f
2:04 4.5ft 5s 18 20 mph 1015.3mb 61f 66f
1:04 3.5ft 5s 16 20 mph 1015.8mb 61f 65f